sensor_id;sensor_type;location;lat;lon;timestamp;temperature;humidity
33955;DHT22;20233;50.804;7.126;2022-12-18T00:01:58;-4.30;99.90
33955;DHT22;20233;50.804;7.126;2022-12-18T00:04:26;-4.50;99.90
33955;DHT22;20233;50.804;7.126;2022-12-18T00:06:53;-4.40;99.90
33955;DHT22;20233;50.804;7.126;2022-12-18T00:09:21;-4.50;99.90
33955;DHT22;20233;50.804;7.126;2022-12-18T00:11:48;-4.50;99.90
33955;DHT22;20233;50.804;7.126;2022-12-18T00:14:15;-4.50;99.90
33955;DHT22;20233;50.804;7.126;2022-12-18T00:16:44;-4.50;99.90
33955;DHT22;20233;50.804;7.126;2022-12-18T00:19:11;-4.60;99.90
33955;DHT22;20233;50.804;7.126;2022-12-18T00:21:42;-4.50;99.90
33955;DHT22;20233;50.804;7.126;2022-12-18T00:24:10;-4.50;99.90
33955;DHT22;20233;50.804;7.126;2022-12-18T00:26:37;-4.50;99.90
33955;DHT22;20233;50.804;7.126;2022-12-18T00:29:08;-4.40;99.90
33955;DHT22;20233;50.804;7.126;2022-12-18T00:31:36;-4.50;99.90
33955;DHT22;20233;50.804;7.126;2022-12-18T00:34:04;-4.50;99.90
33955;DHT22;20233;50.804;7.126;2022-12-18T00:36:34;-4.50;99.90
33955;DHT22;20233;50.804;7.126;2022-12-18T00:39:03;-4.50;99.90
33955;DHT22;20233;50.804;7.126;2022-12-18T00:41:30;-4.50;99.90
33955;DHT22;20233;50.804;7.126;2022-12-18T00:44:17;-4.50;99.90
33955;DHT22;20233;50.804;7.126;2022-12-18T00:46:45;-4.50;99.90
33955;DHT22;20233;50.804;7.126;2022-12-18T00:49:11;-4.60;99.90
33955;DHT22;20233;50.804;7.126;2022-12-18T00:51:38;-4.60;99.90
33955;DHT22;20233;50.804;7.126;2022-12-18T00:54:05;-4.60;99.90
33955;DHT22;20233;50.804;7.126;2022-12-18T00:56:31;-4.60;99.90
33955;DHT22;20233;50.804;7.126;2022-12-18T00:58:58;-4.60;99.90
33955;DHT22;20233;50.804;7.126;2022-12-18T01:01:25;-4.60;99.90
33955;DHT22;20233;50.804;7.126;2022-12-18T01:03:51;-4.60;99.90
33955;DHT22;20233;50.804;7.126;2022-12-18T01:06:18;-4.60;99.90
33955;DHT22;20233;50.804;7.126;2022-12-18T01:08:44;-4.60;99.90
33955;DHT22;20233;50.804;7.126;2022-12-18T01:11:13;-4.60;99.90
33955;DHT22;20233;50.804;7.126;2022-12-18T01:13:40;-4.60;99.90
33955;DHT22;20233;50.804;7.126;2022-12-18T01:16:06;-4.60;99.90
33955;DHT22;20233;50.804;7.126;2022-12-18T01:18:33;-4.60;99.90
33955;DHT22;20233;50.804;7.126;2022-12-18T01:20:59;-4.60;99.90
33955;DHT22;20233;50.804;7.126;2022-12-18T01:23:27;-4.60;99.90
33955;DHT22;20233;50.804;7.126;2022-12-18T01:25:53;-4.50;99.90
33955;DHT22;20233;50.804;7.126;2022-12-18T01:28:21;-4.60;99.90
33955;DHT22;20233;50.804;7.126;2022-12-18T01:30:47;-4.50;99.90
33955;DHT22;20233;50.804;7.126;2022-12-18T01:33:14;-4.50;99.90
33955;DHT22;20233;50.804;7.126;2022-12-18T01:35:41;-4.60;99.90
33955;DHT22;20233;50.804;7.126;2022-12-18T01:38:09;-4.60;99.90
33955;DHT22;20233;50.804;7.126;2022-12-18T01:40:36;-4.70;99.90
33955;DHT22;20233;50.804;7.126;2022-12-18T01:43:03;-4.60;99.90
33955;DHT22;20233;50.804;7.126;2022-12-18T01:45:31;-4.60;99.90
33955;DHT22;20233;50.804;7.126;2022-12-18T01:48:06;-4.60;99.90
33955;DHT22;20233;50.804;7.126;2022-12-18T01:50:40;-4.60;99.90
33955;DHT22;20233;50.804;7.126;2022-12-18T01:53:17;-4.70;99.90
33955;DHT22;20233;50.804;7.126;2022-12-18T01:55:55;-4.70;99.90
33955;DHT22;20233;50.804;7.126;2022-12-18T01:58:30;-4.70;99.90
33955;DHT22;20233;50.804;7.126;2022-12-18T02:01:00;-4.70;99.90
33955;DHT22;20233;50.804;7.126;2022-12-18T02:03:28;-4.80;99.90
33955;DHT22;20233;50.804;7.126;2022-12-18T02:06:23;-4.80;99.90
33955;DHT22;20233;50.804;7.126;2022-12-18T02:09:10;-4.80;99.90
33955;DHT22;20233;50.804;7.126;2022-12-18T02:14:38;-4.90;99.90
33955;DHT22;20233;50.804;7.126;2022-12-18T02:17:23;-4.90;99.90
33955;DHT22;20233;50.804;7.126;2022-12-18T02:20:12;-4.90;99.90
33955;DHT22;20233;50.804;7.126;2022-12-18T02:25:35;-5.00;99.90
33955;DHT22;20233;50.804;7.126;2022-12-18T02:28:09;-5.00;99.90
33955;DHT22;20233;50.804;7.126;2022-12-18T02:30:38;-5.10;99.90
33955;DHT22;20233;50.804;7.126;2022-12-18T02:33:06;-5.10;99.90
33955;DHT22;20233;50.804;7.126;2022-12-18T02:35:34;-5.10;99.90
33955;DHT22;20233;50.804;7.126;2022-12-18T02:38:03;-5.10;99.90
33955;DHT22;20233;50.804;7.126;2022-12-18T02:40:30;-5.10;99.90
33955;DHT22;20233;50.804;7.126;2022-12-18T02:43:06;-5.10;99.90
33955;DHT22;20233;50.804;7.126;2022-12-18T02:45:33;-5.00;99.90
33955;DHT22;20233;50.804;7.126;2022-12-18T02:48:01;-5.10;99.90
33955;DHT22;20233;50.804;7.126;2022-12-18T02:56:53;-5.10;99.90
33955;DHT22;20233;50.804;7.126;2022-12-18T02:59:13;-5.20;99.90
33955;DHT22;20233;50.804;7.126;2022-12-18T03:04:38;-5.20;99.90
33955;DHT22;20233;50.804;7.126;2022-12-18T03:07:09;-5.20;99.90
33955;DHT22;20233;50.804;7.126;2022-12-18T03:09:39;-5.20;99.90
33955;DHT22;20233;50.804;7.126;2022-12-18T03:12:31;-5.20;99.90
33955;DHT22;20233;50.804;7.126;2022-12-18T03:15:21;-5.20;99.90
33955;DHT22;20233;50.804;7.126;2022-12-18T03:17:51;-5.20;99.90
33955;DHT22;20233;50.804;7.126;2022-12-18T03:20:21;-5.20;99.90
33955;DHT22;20233;50.804;7.126;2022-12-18T03:22:52;-5.30;99.90
33955;DHT22;20233;50.804;7.126;2022-12-18T03:25:20;-5.20;99.90
33955;DHT22;20233;50.804;7.126;2022-12-18T03:27:53;-5.20;99.90
33955;DHT22;20233;50.804;7.126;2022-12-18T03:30:22;-5.20;99.90
33955;DHT22;20233;50.804;7.126;2022-12-18T03:35:24;-5.20;99.90
33955;DHT22;20233;50.804;7.126;2022-12-18T03:37:52;-5.20;99.90
33955;DHT22;20233;50.804;7.126;2022-12-18T03:40:22;-5.20;99.90
33955;DHT22;20233;50.804;7.126;2022-12-18T03:42:56;-5.20;99.90
33955;DHT22;20233;50.804;7.126;2022-12-18T03:45:31;-5.20;99.90
33955;DHT22;20233;50.804;7.126;2022-12-18T03:48:39;-5.30;99.90
33955;DHT22;20233;50.804;7.126;2022-12-18T03:51:01;-5.30;99.90
33955;DHT22;20233;50.804;7.126;2022-12-18T03:53:58;-5.30;99.90
33955;DHT22;20233;50.804;7.126;2022-12-18T03:56:28;-5.30;99.90
33955;DHT22;20233;50.804;7.126;2022-12-18T03:58:57;-5.30;99.90
33955;DHT22;20233;50.804;7.126;2022-12-18T04:01:40;-5.30;99.90
33955;DHT22;20233;50.804;7.126;2022-12-18T04:04:06;-5.30;99.90
33955;DHT22;20233;50.804;7.126;2022-12-18T04:06:34;-5.40;99.90
33955;DHT22;20233;50.804;7.126;2022-12-18T04:09:01;-5.40;99.90
33955;DHT22;20233;50.804;7.126;2022-12-18T04:11:28;-5.30;99.90
33955;DHT22;20233;50.804;7.126;2022-12-18T04:13:58;-5.30;99.90
33955;DHT22;20233;50.804;7.126;2022-12-18T04:16:26;-5.30;99.90
33955;DHT22;20233;50.804;7.126;2022-12-18T04:18:53;-5.30;99.90
33955;DHT22;20233;50.804;7.126;2022-12-18T04:21:20;-5.40;99.90
33955;DHT22;20233;50.804;7.126;2022-12-18T04:23:47;-5.40;99.90
33955;DHT22;20233;50.804;7.126;2022-12-18T04:26:13;-5.40;99.90
33955;DHT22;20233;50.804;7.126;2022-12-18T04:28:40;-5.40;99.90
33955;DHT22;20233;50.804;7.126;2022-12-18T04:31:06;-5.40;99.90
33955;DHT22;20233;50.804;7.126;2022-12-18T04:33:32;-5.50;99.90
33955;DHT22;20233;50.804;7.126;2022-12-18T04:35:59;-5.50;99.90
33955;DHT22;20233;50.804;7.126;2022-12-18T04:38:26;-5.50;99.90
33955;DHT22;20233;50.804;7.126;2022-12-18T04:40:54;-5.50;99.90
33955;DHT22;20233;50.804;7.126;2022-12-18T04:43:20;-5.40;99.90
33955;DHT22;20233;50.804;7.126;2022-12-18T04:45:47;-5.60;99.90
33955;DHT22;20233;50.804;7.126;2022-12-18T04:48:14;-5.50;99.90
33955;DHT22;20233;50.804;7.126;2022-12-18T04:50:40;-5.60;99.90
33955;DHT22;20233;50.804;7.126;2022-12-18T04:53:08;-5.60;99.90
33955;DHT22;20233;50.804;7.126;2022-12-18T04:55:35;-5.60;99.90
33955;DHT22;20233;50.804;7.126;2022-12-18T04:58:02;-5.50;99.90
33955;DHT22;20233;50.804;7.126;2022-12-18T05:00:28;-5.60;99.90
33955;DHT22;20233;50.804;7.126;2022-12-18T05:02:56;-5.60;99.90
33955;DHT22;20233;50.804;7.126;2022-12-18T05:05:23;-5.70;99.90
33955;DHT22;20233;50.804;7.126;2022-12-18T05:07:50;-5.60;99.90
33955;DHT22;20233;50.804;7.126;2022-12-18T05:10:16;-5.60;99.90
33955;DHT22;20233;50.804;7.126;2022-12-18T05:12:43;-5.70;99.90
33955;DHT22;20233;50.804;7.126;2022-12-18T05:15:32;-5.70;99.90
33955;DHT22;20233;50.804;7.126;2022-12-18T05:17:59;-5.70;99.90
33955;DHT22;20233;50.804;7.126;2022-12-18T05:20:26;-5.70;99.90
33955;DHT22;20233;50.804;7.126;2022-12-18T05:22:53;-5.70;99.90
33955;DHT22;20233;50.804;7.126;2022-12-18T05:25:38;-5.70;99.90
33955;DHT22;20233;50.804;7.126;2022-12-18T05:28:05;-5.70;99.90
33955;DHT22;20233;50.804;7.126;2022-12-18T05:30:31;-5.70;99.90
33955;DHT22;20233;50.804;7.126;2022-12-18T05:33:00;-5.70;99.90
33955;DHT22;20233;50.804;7.126;2022-12-18T05:35:27;-5.70;99.90
33955;DHT22;20233;50.804;7.126;2022-12-18T05:37:54;-5.70;99.90
33955;DHT22;20233;50.804;7.126;2022-12-18T05:40:21;-5.70;99.90
33955;DHT22;20233;50.804;7.126;2022-12-18T05:42:48;-5.80;99.90
33955;DHT22;20233;50.804;7.126;2022-12-18T05:45:15;-5.80;99.90
33955;DHT22;20233;50.804;7.126;2022-12-18T05:47:41;-5.80;99.90
33955;DHT22;20233;50.804;7.126;2022-12-18T05:50:08;-5.70;99.90
33955;DHT22;20233;50.804;7.126;2022-12-18T05:52:34;-5.70;99.90
33955;DHT22;20233;50.804;7.126;2022-12-18T05:55:00;-5.60;99.90
33955;DHT22;20233;50.804;7.126;2022-12-18T05:57:27;-5.60;99.90
33955;DHT22;20233;50.804;7.126;2022-12-18T05:59:53;-5.50;99.90
33955;DHT22;20233;50.804;7.126;2022-12-18T06:02:20;-5.60;99.90
33955;DHT22;20233;50.804;7.126;2022-12-18T06:04:47;-5.60;99.90
33955;DHT22;20233;50.804;7.126;2022-12-18T06:07:14;-5.60;99.90
33955;DHT22;20233;50.804;7.126;2022-12-18T06:09:41;-5.60;99.90
33955;DHT22;20233;50.804;7.126;2022-12-18T06:12:07;-5.60;99.90
33955;DHT22;20233;50.804;7.126;2022-12-18T06:14:33;-5.60;99.90
33955;DHT22;20233;50.804;7.126;2022-12-18T06:17:00;-5.60;99.90
33955;DHT22;20233;50.804;7.126;2022-12-18T06:19:27;-5.60;99.90
33955;DHT22;20233;50.804;7.126;2022-12-18T06:21:53;-5.70;99.90
33955;DHT22;20233;50.804;7.126;2022-12-18T06:24:19;-5.70;99.90
33955;DHT22;20233;50.804;7.126;2022-12-18T06:26:46;-5.60;99.90
33955;DHT22;20233;50.804;7.126;2022-12-18T06:29:14;-5.60;99.90
33955;DHT22;20233;50.804;7.126;2022-12-18T06:31:41;-5.60;99.90
33955;DHT22;20233;50.804;7.126;2022-12-18T06:34:07;-5.60;99.90
33955;DHT22;20233;50.804;7.126;2022-12-18T06:36:33;-5.70;99.90
33955;DHT22;20233;50.804;7.126;2022-12-18T06:39:00;-5.70;99.90
33955;DHT22;20233;50.804;7.126;2022-12-18T06:41:27;-5.70;99.90
33955;DHT22;20233;50.804;7.126;2022-12-18T06:43:53;-5.80;99.90
33955;DHT22;20233;50.804;7.126;2022-12-18T06:46:20;-5.80;99.90
33955;DHT22;20233;50.804;7.126;2022-12-18T06:48:48;-5.90;99.90
33955;DHT22;20233;50.804;7.126;2022-12-18T06:51:21;-5.90;99.90
33955;DHT22;20233;50.804;7.126;2022-12-18T06:53:47;-5.90;99.90
33955;DHT22;20233;50.804;7.126;2022-12-18T06:56:13;-5.90;99.90
33955;DHT22;20233;50.804;7.126;2022-12-18T06:58:42;-5.90;99.90
33955;DHT22;20233;50.804;7.126;2022-12-18T07:01:11;-5.90;99.90
33955;DHT22;20233;50.804;7.126;2022-12-18T07:03:39;-5.90;99.90
33955;DHT22;20233;50.804;7.126;2022-12-18T07:06:17;-5.80;99.90
33955;DHT22;20233;50.804;7.126;2022-12-18T07:08:44;-5.80;99.90
33955;DHT22;20233;50.804;7.126;2022-12-18T07:11:11;-5.80;99.90
33955;DHT22;20233;50.804;7.126;2022-12-18T07:13:38;-5.80;99.90
33955;DHT22;20233;50.804;7.126;2022-12-18T07:16:09;-5.80;99.90
33955;DHT22;20233;50.804;7.126;2022-12-18T07:18:36;-5.80;99.90
33955;DHT22;20233;50.804;7.126;2022-12-18T07:21:12;-5.80;99.90
33955;DHT22;20233;50.804;7.126;2022-12-18T07:23:38;-5.80;99.90
33955;DHT22;20233;50.804;7.126;2022-12-18T07:26:09;-5.80;99.90
33955;DHT22;20233;50.804;7.126;2022-12-18T07:28:37;-5.80;99.90
33955;DHT22;20233;50.804;7.126;2022-12-18T07:31:05;-5.80;99.90
33955;DHT22;20233;50.804;7.126;2022-12-18T07:33:34;-5.70;99.90
33955;DHT22;20233;50.804;7.126;2022-12-18T07:36:02;-5.70;99.90
33955;DHT22;20233;50.804;7.126;2022-12-18T07:38:31;-5.80;99.90
33955;DHT22;20233;50.804;7.126;2022-12-18T07:41:06;-5.80;99.90
33955;DHT22;20233;50.804;7.126;2022-12-18T07:43:35;-5.80;99.90
33955;DHT22;20233;50.804;7.126;2022-12-18T07:46:02;-5.70;99.90
33955;DHT22;20233;50.804;7.126;2022-12-18T07:48:29;-5.80;99.90
33955;DHT22;20233;50.804;7.126;2022-12-18T07:51:03;-5.70;99.90
33955;DHT22;20233;50.804;7.126;2022-12-18T07:53:31;-5.70;99.90
33955;DHT22;20233;50.804;7.126;2022-12-18T07:55:59;-5.70;99.90
33955;DHT22;20233;50.804;7.126;2022-12-18T07:58:26;-5.70;99.90
33955;DHT22;20233;50.804;7.126;2022-12-18T08:00:53;-5.70;99.90
33955;DHT22;20233;50.804;7.126;2022-12-18T08:03:20;-5.60;99.90
33955;DHT22;20233;50.804;7.126;2022-12-18T08:05:47;-5.60;99.90
33955;DHT22;20233;50.804;7.126;2022-12-18T08:08:16;-5.60;99.90
33955;DHT22;20233;50.804;7.126;2022-12-18T08:10:43;-5.60;99.90
33955;DHT22;20233;50.804;7.126;2022-12-18T08:13:09;-5.50;99.90
33955;DHT22;20233;50.804;7.126;2022-12-18T08:15:35;-5.50;99.90
33955;DHT22;20233;50.804;7.126;2022-12-18T08:18:02;-5.40;99.90
33955;DHT22;20233;50.804;7.126;2022-12-18T08:20:30;-5.40;99.90
33955;DHT22;20233;50.804;7.126;2022-12-18T08:22:56;-5.30;99.90
33955;DHT22;20233;50.804;7.126;2022-12-18T08:25:24;-5.30;99.90
33955;DHT22;20233;50.804;7.126;2022-12-18T08:27:51;-5.20;99.90
33955;DHT22;20233;50.804;7.126;2022-12-18T08:30:18;-5.20;99.90
33955;DHT22;20233;50.804;7.126;2022-12-18T08:32:45;-5.10;99.90
33955;DHT22;20233;50.804;7.126;2022-12-18T08:35:11;-5.10;99.90
33955;DHT22;20233;50.804;7.126;2022-12-18T08:37:38;-5.00;99.90
33955;DHT22;20233;50.804;7.126;2022-12-18T08:40:05;-4.90;99.90
33955;DHT22;20233;50.804;7.126;2022-12-18T08:42:32;-4.80;99.90
33955;DHT22;20233;50.804;7.126;2022-12-18T08:45:17;-4.80;99.90
33955;DHT22;20233;50.804;7.126;2022-12-18T08:47:43;-4.70;99.90
33955;DHT22;20233;50.804;7.126;2022-12-18T08:50:10;-4.60;99.90
33955;DHT22;20233;50.804;7.126;2022-12-18T08:52:38;-4.60;99.90
33955;DHT22;20233;50.804;7.126;2022-12-18T08:55:05;-4.60;99.90
33955;DHT22;20233;50.804;7.126;2022-12-18T08:57:31;-4.50;99.90
33955;DHT22;20233;50.804;7.126;2022-12-18T08:59:58;-4.40;99.90
33955;DHT22;20233;50.804;7.126;2022-12-18T09:02:25;-4.30;99.90
33955;DHT22;20233;50.804;7.126;2022-12-18T09:04:54;-4.30;99.90
33955;DHT22;20233;50.804;7.126;2022-12-18T09:07:20;-4.20;99.90
33955;DHT22;20233;50.804;7.126;2022-12-18T09:09:46;-4.10;99.90
33955;DHT22;20233;50.804;7.126;2022-12-18T09:12:13;-4.10;99.90
33955;DHT22;20233;50.804;7.126;2022-12-18T09:14:39;-4.00;99.90
33955;DHT22;20233;50.804;7.126;2022-12-18T09:17:07;-3.90;99.90
33955;DHT22;20233;50.804;7.126;2022-12-18T09:19:33;-3.80;99.90
33955;DHT22;20233;50.804;7.126;2022-12-18T09:21:59;-3.80;99.90
33955;DHT22;20233;50.804;7.126;2022-12-18T09:24:26;-3.70;99.90
33955;DHT22;20233;50.804;7.126;2022-12-18T09:26:53;-3.70;99.90
33955;DHT22;20233;50.804;7.126;2022-12-18T09:29:21;-3.70;99.90
33955;DHT22;20233;50.804;7.126;2022-12-18T09:31:48;-3.60;99.90
33955;DHT22;20233;50.804;7.126;2022-12-18T09:34:15;-3.60;99.90
33955;DHT22;20233;50.804;7.126;2022-12-18T09:36:42;-3.40;99.90
33955;DHT22;20233;50.804;7.126;2022-12-18T09:39:09;-3.40;99.90
33955;DHT22;20233;50.804;7.126;2022-12-18T09:41:40;-3.30;99.90
33955;DHT22;20233;50.804;7.126;2022-12-18T09:44:39;-3.20;99.90
33955;DHT22;20233;50.804;7.126;2022-12-18T09:47:30;-3.10;99.90
33955;DHT22;20233;50.804;7.126;2022-12-18T09:50:04;-3.00;99.90
33955;DHT22;20233;50.804;7.126;2022-12-18T09:52:34;-3.00;99.90
33955;DHT22;20233;50.804;7.126;2022-12-18T09:55:21;-2.80;99.90
33955;DHT22;20233;50.804;7.126;2022-12-18T09:57:53;-2.70;99.90
33955;DHT22;20233;50.804;7.126;2022-12-18T10:00:23;-2.60;99.90
33955;DHT22;20233;50.804;7.126;2022-12-18T10:02:53;-2.50;99.90
33955;DHT22;20233;50.804;7.126;2022-12-18T10:05:37;-2.50;99.90
33955;DHT22;20233;50.804;7.126;2022-12-18T10:10:57;-2.30;99.90
33955;DHT22;20233;50.804;7.126;2022-12-18T10:16:29;-2.10;99.90
33955;DHT22;20233;50.804;7.126;2022-12-18T10:26:06;-1.90;99.90
33955;DHT22;20233;50.804;7.126;2022-12-18T10:28:20;-1.80;99.90
33955;DHT22;20233;50.804;7.126;2022-12-18T10:30:52;-1.70;99.90
33955;DHT22;20233;50.804;7.126;2022-12-18T10:33:24;-1.70;99.90
33955;DHT22;20233;50.804;7.126;2022-12-18T10:35:52;-1.70;99.90
33955;DHT22;20233;50.804;7.126;2022-12-18T10:41:32;-1.60;99.90
33955;DHT22;20233;50.804;7.126;2022-12-18T10:43:42;-1.50;99.90
33955;DHT22;20233;50.804;7.126;2022-12-18T10:46:12;-1.40;99.90
33955;DHT22;20233;50.804;7.126;2022-12-18T10:51:28;-1.30;99.90
33955;DHT22;20233;50.804;7.126;2022-12-18T10:54:14;-1.30;99.90
33955;DHT22;20233;50.804;7.126;2022-12-18T10:56:41;-1.30;99.90
33955;DHT22;20233;50.804;7.126;2022-12-18T11:04:25;-1.20;99.90
33955;DHT22;20233;50.804;7.126;2022-12-18T11:07:03;-1.20;99.90
33955;DHT22;20233;50.804;7.126;2022-12-18T11:09:34;-1.20;99.90
33955;DHT22;20233;50.804;7.126;2022-12-18T11:12:16;-1.20;99.90
33955;DHT22;20233;50.804;7.126;2022-12-18T11:14:50;-1.20;99.90
33955;DHT22;20233;50.804;7.126;2022-12-18T11:17:20;-1.20;99.90
33955;DHT22;20233;50.804;7.126;2022-12-18T11:19:53;-1.10;99.90
33955;DHT22;20233;50.804;7.126;2022-12-18T11:22:28;-1.00;99.90
33955;DHT22;20233;50.804;7.126;2022-12-18T11:24:56;-1.00;99.90
33955;DHT22;20233;50.804;7.126;2022-12-18T11:27:23;-0.90;99.90
33955;DHT22;20233;50.804;7.126;2022-12-18T11:29:51;-0.90;99.90
33955;DHT22;20233;50.804;7.126;2022-12-18T11:32:39;-0.90;99.90
33955;DHT22;20233;50.804;7.126;2022-12-18T11:35:59;-0.80;99.90
33955;DHT22;20233;50.804;7.126;2022-12-18T11:38:05;-0.80;99.90
33955;DHT22;20233;50.804;7.126;2022-12-18T11:40:36;-0.70;99.90
33955;DHT22;20233;50.804;7.126;2022-12-18T11:45:59;-0.90;99.90
33955;DHT22;20233;50.804;7.126;2022-12-18T11:48:36;-0.90;99.90
33955;DHT22;20233;50.804;7.126;2022-12-18T11:51:11;-0.90;99.90
33955;DHT22;20233;50.804;7.126;2022-12-18T11:53:38;-0.80;99.90
33955;DHT22;20233;50.804;7.126;2022-12-18T11:56:36;-0.80;99.90
33955;DHT22;20233;50.804;7.126;2022-12-18T11:59:23;-0.70;99.90
33955;DHT22;20233;50.804;7.126;2022-12-18T12:02:24;-0.70;99.90
33955;DHT22;20233;50.804;7.126;2022-12-18T12:05:16;-0.70;99.90
33955;DHT22;20233;50.804;7.126;2022-12-18T12:11:04;-0.80;99.90
33955;DHT22;20233;50.804;7.126;2022-12-18T12:16:35;-0.80;99.90
33955;DHT22;20233;50.804;7.126;2022-12-18T12:19:28;-0.80;99.90
33955;DHT22;20233;50.804;7.126;2022-12-18T12:22:07;-0.70;99.90
33955;DHT22;20233;50.804;7.126;2022-12-18T12:25:02;-0.60;99.90
33955;DHT22;20233;50.804;7.126;2022-12-18T12:27:44;-0.70;99.90
33955;DHT22;20233;50.804;7.126;2022-12-18T12:30:21;-0.60;99.90
33955;DHT22;20233;50.804;7.126;2022-12-18T12:35:57;-0.70;99.90
33955;DHT22;20233;50.804;7.126;2022-12-18T12:38:41;-0.60;99.90
33955;DHT22;20233;50.804;7.126;2022-12-18T12:41:13;-0.70;99.90
33955;DHT22;20233;50.804;7.126;2022-12-18T12:44:02;-0.60;99.90
33955;DHT22;20233;50.804;7.126;2022-12-18T12:46:34;-0.60;99.90
33955;DHT22;20233;50.804;7.126;2022-12-18T12:49:09;-0.60;99.90
33955;DHT22;20233;50.804;7.126;2022-12-18T12:51:41;-0.70;99.90
33955;DHT22;20233;50.804;7.126;2022-12-18T12:54:17;-0.70;99.90
33955;DHT22;20233;50.804;7.126;2022-12-18T12:56:53;-0.70;99.90
33955;DHT22;20233;50.804;7.126;2022-12-18T13:07:26;-0.60;99.90
33955;DHT22;20233;50.804;7.126;2022-12-18T13:25:56;-0.70;99.90
33955;DHT22;20233;50.804;7.126;2022-12-18T13:34:25;-0.50;99.90
33955;DHT22;20233;50.804;7.126;2022-12-18T13:36:53;-0.50;99.90
33955;DHT22;20233;50.804;7.126;2022-12-18T13:39:21;-0.50;99.90
33955;DHT22;20233;50.804;7.126;2022-12-18T13:44:39;-0.40;99.90
33955;DHT22;20233;50.804;7.126;2022-12-18T13:47:31;-0.50;99.90
33955;DHT22;20233;50.804;7.126;2022-12-18T13:49:59;-0.40;99.90
33955;DHT22;20233;50.804;7.126;2022-12-18T13:52:28;-0.40;99.90
33955;DHT22;20233;50.804;7.126;2022-12-18T13:54:57;-0.40;99.90
33955;DHT22;20233;50.804;7.126;2022-12-18T13:59:51;-0.40;99.90
33955;DHT22;20233;50.804;7.126;2022-12-18T14:02:21;-0.40;99.90
33955;DHT22;20233;50.804;7.126;2022-12-18T14:04:50;-0.50;99.90
33955;DHT22;20233;50.804;7.126;2022-12-18T14:07:21;-0.40;99.90
33955;DHT22;20233;50.804;7.126;2022-12-18T14:10:11;-0.40;99.90
33955;DHT22;20233;50.804;7.126;2022-12-18T14:12:39;-0.40;99.90
33955;DHT22;20233;50.804;7.126;2022-12-18T14:21:30;-0.40;99.90
33955;DHT22;20233;50.804;7.126;2022-12-18T14:24:14;-0.60;99.90
33955;DHT22;20233;50.804;7.126;2022-12-18T14:26:42;-0.60;99.90
33955;DHT22;20233;50.804;7.126;2022-12-18T14:29:29;-0.60;99.90
33955;DHT22;20233;50.804;7.126;2022-12-18T14:32:11;-0.60;99.90
33955;DHT22;20233;50.804;7.126;2022-12-18T14:34:38;-0.60;99.90
33955;DHT22;20233;50.804;7.126;2022-12-18T14:37:07;-0.60;99.90
33955;DHT22;20233;50.804;7.126;2022-12-18T14:39:35;-0.60;99.90
33955;DHT22;20233;50.804;7.126;2022-12-18T14:42:02;-0.60;99.90
33955;DHT22;20233;50.804;7.126;2022-12-18T14:44:29;-0.60;99.90
33955;DHT22;20233;50.804;7.126;2022-12-18T14:46:57;-0.60;99.90
33955;DHT22;20233;50.804;7.126;2022-12-18T14:49:33;-0.60;99.90
33955;DHT22;20233;50.804;7.126;2022-12-18T14:52:06;-0.50;99.90
33955;DHT22;20233;50.804;7.126;2022-12-18T14:54:34;-0.60;99.90
33955;DHT22;20233;50.804;7.126;2022-12-18T14:57:24;-0.60;99.90
33955;DHT22;20233;50.804;7.126;2022-12-18T14:59:52;-0.70;99.90
33955;DHT22;20233;50.804;7.126;2022-12-18T15:02:25;-0.70;99.90
33955;DHT22;20233;50.804;7.126;2022-12-18T15:05:25;-0.70;99.90
33955;DHT22;20233;50.804;7.126;2022-12-18T15:07:53;-0.70;99.90
33955;DHT22;20233;50.804;7.126;2022-12-18T15:10:32;-0.80;99.90
33955;DHT22;20233;50.804;7.126;2022-12-18T15:20:47;-0.80;99.90
33955;DHT22;20233;50.804;7.126;2022-12-18T15:23:21;-0.80;99.90
33955;DHT22;20233;50.804;7.126;2022-12-18T15:25:54;-0.80;99.90
33955;DHT22;20233;50.804;7.126;2022-12-18T15:28:32;-0.80;99.90
33955;DHT22;20233;50.804;7.126;2022-12-18T15:33:39;-0.90;99.90
33955;DHT22;20233;50.804;7.126;2022-12-18T15:36:16;-0.90;99.90
33955;DHT22;20233;50.804;7.126;2022-12-18T15:38:47;-1.00;99.90
33955;DHT22;20233;50.804;7.126;2022-12-18T15:41:17;-0.90;99.90
33955;DHT22;20233;50.804;7.126;2022-12-18T15:43:45;-1.00;99.90
33955;DHT22;20233;50.804;7.126;2022-12-18T15:46:17;-1.00;99.90
33955;DHT22;20233;50.804;7.126;2022-12-18T15:51:20;-0.90;99.90
33955;DHT22;20233;50.804;7.126;2022-12-18T15:53:49;-0.90;99.90
33955;DHT22;20233;50.804;7.126;2022-12-18T15:56:17;-0.90;99.90
33955;DHT22;20233;50.804;7.126;2022-12-18T15:59:02;-0.90;99.90
33955;DHT22;20233;50.804;7.126;2022-12-18T16:01:29;-0.90;99.90
33955;DHT22;20233;50.804;7.126;2022-12-18T16:03:59;-0.90;99.90
33955;DHT22;20233;50.804;7.126;2022-12-18T16:06:26;-1.00;99.90
33955;DHT22;20233;50.804;7.126;2022-12-18T16:08:53;-0.90;99.90
33955;DHT22;20233;50.804;7.126;2022-12-18T16:14:23;-0.90;99.90
33955;DHT22;20233;50.804;7.126;2022-12-18T16:16:56;-0.90;99.90
33955;DHT22;20233;50.804;7.126;2022-12-18T16:19:24;-1.00;99.90
33955;DHT22;20233;50.804;7.126;2022-12-18T16:21:52;-1.00;99.90
33955;DHT22;20233;50.804;7.126;2022-12-18T16:24:21;-1.00;99.90
33955;DHT22;20233;50.804;7.126;2022-12-18T16:26:51;-1.00;99.90
33955;DHT22;20233;50.804;7.126;2022-12-18T16:29:18;-1.10;99.90
33955;DHT22;20233;50.804;7.126;2022-12-18T16:31:45;-1.10;99.90
33955;DHT22;20233;50.804;7.126;2022-12-18T16:34:20;-1.00;99.90
33955;DHT22;20233;50.804;7.126;2022-12-18T16:36:57;-1.10;99.90
33955;DHT22;20233;50.804;7.126;2022-12-18T16:39:25;-1.20;99.90
33955;DHT22;20233;50.804;7.126;2022-12-18T16:41:51;-1.20;99.90
33955;DHT22;20233;50.804;7.126;2022-12-18T16:44:18;-1.10;99.90
33955;DHT22;20233;50.804;7.126;2022-12-18T16:46:46;-1.10;99.90
33955;DHT22;20233;50.804;7.126;2022-12-18T16:49:14;-1.10;99.90
33955;DHT22;20233;50.804;7.126;2022-12-18T16:51:40;-1.10;99.90
33955;DHT22;20233;50.804;7.126;2022-12-18T16:54:07;-1.10;99.90
33955;DHT22;20233;50.804;7.126;2022-12-18T16:56:33;-1.10;99.90
33955;DHT22;20233;50.804;7.126;2022-12-18T16:59:02;-1.10;99.90
33955;DHT22;20233;50.804;7.126;2022-12-18T17:01:30;-1.10;99.90
33955;DHT22;20233;50.804;7.126;2022-12-18T17:04:03;-1.20;99.90
33955;DHT22;20233;50.804;7.126;2022-12-18T17:06:33;-1.20;99.90
33955;DHT22;20233;50.804;7.126;2022-12-18T17:09:05;-1.20;99.90
33955;DHT22;20233;50.804;7.126;2022-12-18T17:11:35;-1.20;99.90
33955;DHT22;20233;50.804;7.126;2022-12-18T17:14:17;-1.20;99.90
33955;DHT22;20233;50.804;7.126;2022-12-18T17:16:45;-1.20;99.90
33955;DHT22;20233;50.804;7.126;2022-12-18T17:19:11;-1.20;99.90
33955;DHT22;20233;50.804;7.126;2022-12-18T17:21:38;-1.10;99.90
33955;DHT22;20233;50.804;7.126;2022-12-18T17:24:05;-1.10;99.90
33955;DHT22;20233;50.804;7.126;2022-12-18T17:26:35;-1.10;99.90
33955;DHT22;20233;50.804;7.126;2022-12-18T17:29:02;-1.10;99.90
33955;DHT22;20233;50.804;7.126;2022-12-18T17:31:30;-1.10;99.90
33955;DHT22;20233;50.804;7.126;2022-12-18T17:33:57;-1.10;99.90
33955;DHT22;20233;50.804;7.126;2022-12-18T17:36:25;-1.10;99.90
33955;DHT22;20233;50.804;7.126;2022-12-18T17:38:58;-1.10;99.90
33955;DHT22;20233;50.804;7.126;2022-12-18T17:41:27;-1.10;99.90
33955;DHT22;20233;50.804;7.126;2022-12-18T17:43:56;-1.20;99.90